Time;durP1;ratioP1;P1;durP2;ratioP2;P2;SDS_P1;SDS_P2;PMS_P1;PMS_P2;Temp;Humidity;BMP_temperature;BMP_pressure;BME280_temperature;BME280_humidity;BME280_pressure;Samples;Min_cycle;Max_cycle;Signal;HPM_P1;HPM_P2
2020/12/19 00:01:52;;;;;;;21.83;12.80;;;;;;;2.45;100.00;97577.44;4995368;28;20232;-94
2020/12/19 00:04:19;;;;;;;31.67;12.40;;;;;;;2.56;100.00;97582.94;4995492;28;20279;-94
2020/12/19 00:06:46;;;;;;;23.57;13.03;;;;;;;2.28;100.00;97581.72;4996000;28;20220;-94
2020/12/19 00:09:13;;;;;;;30.07;14.20;;;;;;;2.26;100.00;97580.97;4995092;28;20240;-94
2020/12/19 00:11:43;;;;;;;28.00;12.70;;;;;;;2.14;100.00;97587.56;4995597;28;20200;-94
2020/12/19 00:14:10;;;;;;;22.30;11.57;;;;;;;2.23;100.00;97590.66;4995148;28;20641;-93
2020/12/19 00:16:37;;;;;;;26.27;13.23;;;;;;;2.12;100.00;97583.38;4994677;28;20705;-93
2020/12/19 00:19:05;;;;;;;23.73;11.77;;;;;;;2.23;100.00;97588.06;4994955;28;20328;-94
2020/12/19 00:21:36;;;;;;;31.20;13.57;;;;;;;2.19;100.00;97591.72;4994991;28;20201;-93
2020/12/19 00:24:04;;;;;;;22.77;12.33;;;;;;;2.18;100.00;97590.84;4994804;28;20242;-93
2020/12/19 00:26:34;;;;;;;26.53;12.17;;;;;;;2.42;100.00;97593.16;4995098;28;20192;-93
2020/12/19 00:29:03;;;;;;;26.20;13.13;;;;;;;2.37;100.00;97590.81;4995095;28;20241;-94
2020/12/19 00:31:30;;;;;;;20.60;11.13;;;;;;;2.19;100.00;97591.72;4995426;28;20239;-94
2020/12/19 00:33:57;;;;;;;21.10;12.13;;;;;;;2.31;100.00;97593.69;4994837;28;20784;-94
2020/12/19 00:36:24;;;;;;;24.77;12.03;;;;;;;2.39;100.00;97591.59;4994736;28;20212;-93
2020/12/19 00:38:51;;;;;;;22.53;12.03;;;;;;;2.57;100.00;97592.41;4995051;28;20258;-94
2020/12/19 00:41:20;;;;;;;16.63;10.83;;;;;;;2.40;100.00;97588.06;4994733;28;20238;-94
2020/12/19 00:43:47;;;;;;;20.83;12.10;;;;;;;2.21;100.00;97590.69;4993955;28;20235;-94
2020/12/19 00:46:16;;;;;;;24.33;12.90;;;;;;;2.17;100.00;97594.38;4994823;28;20648;-94
2020/12/19 00:48:44;;;;;;;20.00;10.90;;;;;;;2.24;100.00;97593.16;4994524;28;20228;-94
2020/12/19 00:51:14;;;;;;;19.53;11.53;;;;;;;2.39;100.00;97591.59;4994891;28;20667;-93
2020/12/19 00:53:42;;;;;;;17.10;10.47;;;;;;;2.54;100.00;97597.75;4994724;28;20658;-94
2020/12/19 00:56:17;;;;;;;21.37;12.07;;;;;;;2.69;100.00;97596.97;4994407;28;20270;-95
2020/12/19 00:58:45;;;;;;;22.00;13.03;;;;;;;2.63;100.00;97602.47;4994421;28;20196;-94
2020/12/19 01:01:13;;;;;;;26.90;14.87;;;;;;;2.29;100.00;97598.13;4994333;28;20258;-94
2020/12/19 01:03:42;;;;;;;20.30;12.30;;;;;;;2.20;100.00;97596.81;4994376;28;20196;-93
2020/12/19 01:06:09;;;;;;;23.30;12.70;;;;;;;2.11;100.00;97600.72;4994660;28;20246;-94
2020/12/19 01:08:35;;;;;;;25.63;12.20;;;;;;;2.07;100.00;97593.97;4994550;28;20196;-93
2020/12/19 01:11:02;;;;;;;27.63;13.07;;;;;;;2.18;100.00;97592.59;4994408;28;20227;-93
2020/12/19 01:13:29;;;;;;;22.10;12.17;;;;;;;2.04;100.00;97601.06;4993839;28;20279;-94
2020/12/19 01:15:56;;;;;;;22.93;12.93;;;;;;;1.92;100.00;97594.72;4994502;28;20215;-94
2020/12/19 01:18:23;;;;;;;25.60;13.10;;;;;;;1.98;100.00;97594.44;4994039;28;20207;-94
2020/12/19 01:20:51;;;;;;;27.07;13.00;;;;;;;1.99;100.00;97583.13;4993960;28;20239;-94
2020/12/19 01:23:17;;;;;;;22.37;12.70;;;;;;;2.00;100.00;97578.78;4994261;28;20200;-94
2020/12/19 01:25:44;;;;;;;22.77;12.57;;;;;;;2.00;100.00;97582.22;4994329;28;20204;-94
2020/12/19 01:28:11;;;;;;;19.80;11.93;;;;;;;2.02;100.00;97579.56;4993584;28;20293;-93
2020/12/19 01:30:39;;;;;;;22.83;12.87;;;;;;;2.04;100.00;97578.53;4993906;28;20193;-93
2020/12/19 01:33:06;;;;;;;20.10;12.20;;;;;;;2.08;100.00;97580.09;4993806;28;20236;-93
2020/12/19 01:35:33;;;;;;;24.13;11.97;;;;;;;2.13;100.00;97578.13;4993942;28;20200;-95
2020/12/19 01:38:00;;;;;;;24.83;11.93;;;;;;;2.12;100.00;97575.59;4993896;28;20262;-95
2020/12/19 01:40:27;;;;;;;20.00;12.03;;;;;;;2.04;100.00;97567.34;4994056;28;20198;-95
2020/12/19 01:42:54;;;;;;;21.70;12.83;;;;;;;1.96;100.00;97578.09;4993611;28;20756;-94
2020/12/19 01:45:21;;;;;;;21.47;10.87;;;;;;;1.91;100.00;97569.69;4993717;28;20246;-93
2020/12/19 01:47:48;;;;;;;19.40;11.20;;;;;;;1.97;100.00;97571.16;4993721;28;20200;-95
2020/12/19 01:50:15;;;;;;;21.23;12.57;;;;;;;2.09;100.00;97566.22;4993422;28;20239;-94
2020/12/19 01:52:42;;;;;;;21.63;9.90;;;;;;;2.02;100.00;97566.59;4993708;28;20227;-94
2020/12/19 01:55:09;;;;;;;25.83;11.50;;;;;;;1.99;100.00;97572.75;4993508;28;20196;-95
2020/12/19 01:57:41;;;;;;;22.53;11.30;;;;;;;1.97;100.00;97566.78;4993541;28;20291;-93
2020/12/19 02:00:09;;;;;;;26.47;13.23;;;;;;;1.97;100.00;97565.97;4993734;28;20200;-93
2020/12/19 02:02:36;;;;;;;21.60;12.60;;;;;;;2.16;100.00;97566.75;4993385;28;20198;-94
2020/12/19 02:05:03;;;;;;;19.73;11.83;;;;;;;2.07;100.00;97574.97;4994126;28;20224;-92
2020/12/19 02:07:29;;;;;;;22.50;13.43;;;;;;;2.09;100.00;97575.75;4993902;28;20208;-93
2020/12/19 02:09:58;;;;;;;27.20;12.93;;;;;;;1.95;100.00;97568.63;4993815;28;20224;-94
2020/12/19 02:12:25;;;;;;;26.43;13.80;;;;;;;1.97;100.00;97577.16;4993557;28;20314;-94
2020/12/19 02:14:57;;;;;;;23.93;12.40;;;;;;;2.08;100.00;97574.09;4993329;28;20266;-94
2020/12/19 02:17:24;;;;;;;31.27;12.40;;;;;;;2.22;100.00;97571.66;4993483;28;20216;-94
2020/12/19 02:19:51;;;;;;;20.27;11.43;;;;;;;2.08;100.00;97572.31;4993892;28;20204;-94
2020/12/19 02:22:18;;;;;;;18.70;12.50;;;;;;;2.06;100.00;97574.13;4993609;28;20200;-94
2020/12/19 02:24:45;;;;;;;25.03;11.57;;;;;;;1.99;100.00;97570.16;4993322;28;20275;-95
2020/12/19 02:27:12;;;;;;;22.80;14.43;;;;;;;1.99;100.00;97572.75;4993265;28;20239;-94
2020/12/19 02:29:39;;;;;;;26.87;13.27;;;;;;;2.24;100.00;97571.56;4993605;28;20200;-94
2020/12/19 02:32:06;;;;;;;23.60;12.97;;;;;;;2.08;100.00;97571.50;4993294;28;20621;-94
2020/12/19 02:34:33;;;;;;;21.70;12.40;;;;;;;2.00;100.00;97571.84;4993616;28;20204;-94
2020/12/19 02:37:00;;;;;;;21.63;12.70;;;;;;;2.01;100.00;97570.94;4993424;28;20230;-95
2020/12/19 02:39:27;;;;;;;23.57;12.33;;;;;;;2.03;100.00;97566.50;4993327;28;20192;-94
2020/12/19 02:41:54;;;;;;;23.63;13.03;;;;;;;1.96;100.00;97570.31;4996078;28;20196;-93
2020/12/19 02:44:22;;;;;;;17.90;11.07;;;;;;;2.08;100.00;97569.72;4997208;28;20693;-93
2020/12/19 02:46:50;;;;;;;23.17;12.70;;;;;;;1.95;100.00;97573.81;4997225;28;20196;-93
2020/12/19 02:49:17;;;;;;;22.50;13.60;;;;;;;1.99;100.00;97577.09;4996936;28;20239;-94
2020/12/19 02:51:44;;;;;;;20.37;12.37;;;;;;;2.01;100.00;97570.94;4996581;28;20733;-94
2020/12/19 02:54:10;;;;;;;21.97;13.10;;;;;;;1.99;100.00;97569.31;4996547;28;20271;-94
2020/12/19 02:56:37;;;;;;;21.33;11.30;;;;;;;2.06;100.00;97578.50;4996935;28;20232;-95
2020/12/19 02:59:05;;;;;;;20.20;12.00;;;;;;;2.01;100.00;97572.66;4996871;28;20196;-95
2020/12/19 03:01:33;;;;;;;21.07;13.17;;;;;;;1.99;100.00;97570.16;4996900;28;20216;-94
2020/12/19 03:04:00;;;;;;;18.43;10.67;;;;;;;2.29;100.00;97572.19;4996483;28;20670;-94
2020/12/19 03:06:28;;;;;;;15.87;10.73;;;;;;;2.05;100.00;97569.88;4996324;28;20215;-94
2020/12/19 03:08:55;;;;;;;16.17;9.83;;;;;;;2.20;100.00;97575.22;4996686;28;20212;-94
2020/12/19 03:11:22;;;;;;;16.83;9.83;;;;;;;2.23;100.00;97578.50;4996373;28;20196;-95
2020/12/19 03:13:49;;;;;;;17.80;10.57;;;;;;;2.33;100.00;97578.91;4996120;28;20235;-94
2020/12/19 03:16:17;;;;;;;16.20;9.20;;;;;;;2.42;100.00;97581.03;4996496;28;20204;-93
2020/12/19 03:18:44;;;;;;;13.20;9.13;;;;;;;2.20;100.00;97583.84;4996672;28;20200;-94
2020/12/19 03:21:11;;;;;;;16.17;10.30;;;;;;;2.32;100.00;97574.59;4996578;28;20604;-94
2020/12/19 03:23:38;;;;;;;16.37;11.37;;;;;;;2.25;100.00;97578.41;4996346;28;20212;-95
2020/12/19 03:26:05;;;;;;;14.93;10.13;;;;;;;2.12;100.00;97571.25;4996034;28;20231;-94
2020/12/19 03:28:31;;;;;;;15.80;9.23;;;;;;;2.24;100.00;97574.16;4996165;28;20204;-95
2020/12/19 03:30:58;;;;;;;14.70;9.10;;;;;;;2.19;100.00;97584.78;4996165;28;20200;-93
2020/12/19 03:33:26;;;;;;;16.50;10.27;;;;;;;2.11;100.00;97579.09;4995900;28;20234;-94
2020/12/19 03:35:53;;;;;;;16.90;10.70;;;;;;;2.12;100.00;97581.63;4996146;28;20721;-93
2020/12/19 03:38:20;;;;;;;17.70;11.40;;;;;;;2.09;100.00;97579.19;4996117;28;20200;-94
2020/12/19 03:40:47;;;;;;;15.83;10.30;;;;;;;2.10;100.00;97580.84;4996234;28;20206;-92
2020/12/19 03:43:14;;;;;;;16.70;11.23;;;;;;;2.02;100.00;97582.16;4995703;28;20277;-94
2020/12/19 03:45:41;;;;;;;15.17;9.63;;;;;;;2.08;100.00;97577.50;4995822;28;20197;-94
2020/12/19 03:48:08;;;;;;;18.10;10.00;;;;;;;2.27;100.00;97585.22;4996291;28;20584;-94
2020/12/19 03:50:35;;;;;;;13.90;9.27;;;;;;;2.09;100.00;97586.13;4995984;28;20208;-94
2020/12/19 03:53:02;;;;;;;12.90;9.17;;;;;;;2.10;100.00;97588.63;4995221;28;20232;-94
2020/12/19 03:55:29;;;;;;;15.87;10.17;;;;;;;2.05;100.00;97582.84;4995784;28;20289;-93
2020/12/19 03:57:56;;;;;;;15.00;10.00;;;;;;;2.08;100.00;97590.47;4995519;28;20296;-94
2020/12/19 04:00:23;;;;;;;16.03;10.00;;;;;;;2.07;100.00;97588.78;4995638;28;20228;-94
2020/12/19 04:02:50;;;;;;;19.13;12.47;;;;;;;1.99;100.00;97592.66;4995734;28;20192;-95
2020/12/19 04:05:17;;;;;;;15.77;11.37;;;;;;;2.01;100.00;97593.41;4995322;28;20200;-94
2020/12/19 04:07:45;;;;;;;16.80;10.40;;;;;;;2.22;100.00;97591.53;4995406;28;20235;-94
2020/12/19 04:10:12;;;;;;;14.30;11.20;;;;;;;2.06;100.00;97589.69;4995658;28;20201;-94
2020/12/19 04:12:39;;;;;;;16.57;11.83;;;;;;;2.03;100.00;97584.66;4995240;28;20792;-94
2020/12/19 04:15:07;;;;;;;18.13;11.60;;;;;;;1.99;100.00;97595.25;4995095;28;20272;-93
2020/12/19 04:17:35;;;;;;;15.50;10.23;;;;;;;2.18;100.00;97582.22;4995212;28;20212;-94
2020/12/19 04:20:01;;;;;;;18.50;10.30;;;;;;;2.17;100.00;97589.19;4995449;28;20204;-95
2020/12/19 04:22:28;;;;;;;15.70;10.97;;;;;;;2.25;100.00;97591.41;4995353;28;20207;-93
2020/12/19 04:24:56;;;;;;;15.83;10.37;;;;;;;2.12;100.00;97591.16;4995196;28;20204;-94
2020/12/19 04:27:23;;;;;;;14.47;10.33;;;;;;;2.04;100.00;97588.91;4995049;28;20240;-94
2020/12/19 04:29:50;;;;;;;18.67;12.70;;;;;;;1.96;100.00;97598.81;4994884;28;20200;-93
2020/12/19 04:32:17;;;;;;;18.30;11.70;;;;;;;1.93;100.00;97591.19;4994738;28;20743;-94
2020/12/19 04:34:44;;;;;;;19.13;12.10;;;;;;;1.96;100.00;97590.22;4994713;28;20189;-94
2020/12/19 04:37:10;;;;;;;19.77;12.23;;;;;;;1.98;100.00;97594.44;4995033;28;20266;-94
2020/12/19 04:39:37;;;;;;;19.13;11.97;;;;;;;1.99;100.00;97597.84;4995116;28;20232;-95
2020/12/19 04:42:05;;;;;;;14.83;11.43;;;;;;;1.96;100.00;97593.66;4994861;28;20267;-92
2020/12/19 04:44:33;;;;;;;20.80;13.77;;;;;;;1.97;100.00;97597.91;4994875;28;20196;-95
2020/12/19 04:47:00;;;;;;;21.67;15.70;;;;;;;1.96;100.00;97598.81;4994651;28;20203;-95
2020/12/19 04:49:28;;;;;;;18.83;13.03;;;;;;;1.90;100.00;97597.38;4994755;28;20586;-94
2020/12/19 04:51:55;;;;;;;24.47;16.07;;;;;;;1.94;100.00;97598.09;4994860;28;20211;-94
2020/12/19 04:54:22;;;;;;;31.13;21.83;;;;;;;2.05;100.00;97606.19;4995132;28;20712;-95
2020/12/19 04:56:54;;;;;;;37.30;21.93;;;;;;;2.06;100.00;97602.66;4994571;28;20240;-95
2020/12/19 04:59:23;;;;;;;26.10;17.87;;;;;;;2.15;100.00;97606.59;4995453;28;20714;-93
2020/12/19 05:01:50;;;;;;;18.83;12.63;;;;;;;2.26;100.00;97606.06;4994730;28;20206;-94
2020/12/19 05:04:17;;;;;;;17.17;12.60;;;;;;;2.19;100.00;97615.91;4993913;28;20192;-94
2020/12/19 05:06:45;;;;;;;26.10;16.83;;;;;;;2.31;100.00;97617.03;4989786;28;20200;-87
2020/12/19 05:09:12;;;;;;;17.63;12.70;;;;;;;2.23;100.00;97611.41;4991764;28;20196;-84
2020/12/19 05:11:40;;;;;;;18.53;14.00;;;;;;;2.14;100.00;97608.31;4959457;28;20208;-92
2020/12/19 05:14:07;;;;;;;21.77;14.50;;;;;;;2.34;100.00;97611.72;4992779;28;20224;-91
2020/12/19 05:16:35;;;;;;;15.37;12.43;;;;;;;2.48;100.00;97611.03;4993147;28;20768;-91
2020/12/19 05:19:10;;;;;;;14.63;11.40;;;;;;;2.46;100.00;97611.13;4993067;28;20207;-91
2020/12/19 05:21:44;;;;;;;16.40;11.57;;;;;;;2.45;100.00;97614.63;4993242;28;20242;-93
2020/12/19 05:24:14;;;;;;;18.60;11.60;;;;;;;2.44;100.00;97627.69;4992815;28;20234;-92
2020/12/19 05:26:42;;;;;;;16.17;13.17;;;;;;;2.46;100.00;97625.81;4993062;28;20760;-93
2020/12/19 05:29:12;;;;;;;20.20;14.00;;;;;;;2.58;100.00;97628.66;4993275;28;20196;-92
2020/12/19 05:32:04;;;;;;;21.67;13.13;;;;;;;2.41;100.00;97633.84;4992728;28;20287;-92
2020/12/19 05:34:31;;;;;;;16.87;11.87;;;;;;;2.57;100.00;97631.34;4992972;28;20775;-92
2020/12/19 05:37:06;;;;;;;16.67;12.17;;;;;;;2.65;100.00;97628.38;4993099;28;20231;-93
2020/12/19 05:39:36;;;;;;;17.10;9.97;;;;;;;2.70;100.00;97628.97;4992990;28;20206;-92
2020/12/19 05:42:03;;;;;;;19.43;11.97;;;;;;;2.95;100.00;97629.44;4993244;28;20218;-92
2020/12/19 05:44:29;;;;;;;21.77;13.27;;;;;;;2.81;100.00;97634.47;4992700;28;20209;-92
2020/12/19 05:46:56;;;;;;;22.93;16.27;;;;;;;2.74;100.00;97640.91;4992501;28;20673;-94
2020/12/19 05:49:24;;;;;;;19.30;14.20;;;;;;;2.75;100.00;97640.81;4992516;28;20204;-93
2020/12/19 05:51:54;;;;;;;20.23;13.70;;;;;;;2.80;100.00;97651.78;4992727;28;20200;-94
2020/12/19 05:54:29;;;;;;;27.97;18.57;;;;;;;2.58;100.00;97643.41;4992469;28;20209;-93
2020/12/19 05:57:03;;;;;;;28.93;19.90;;;;;;;2.66;100.00;97646.44;4992677;28;20180;-93
2020/12/19 05:59:31;;;;;;;27.67;19.53;;;;;;;2.90;100.00;97649.56;4991897;28;20211;-92
2020/12/19 06:01:58;;;;;;;26.10;17.20;;;;;;;2.78;100.00;97650.22;4992746;28;20204;-93
2020/12/19 06:04:28;;;;;;;20.97;14.50;;;;;;;2.60;100.00;97652.81;4992404;28;20825;-92
2020/12/19 06:06:57;;;;;;;22.73;14.90;;;;;;;2.66;100.00;97654.25;4992658;28;20212;-94
2020/12/19 06:09:28;;;;;;;20.73;14.83;;;;;;;2.60;100.00;97655.41;4992687;28;20292;-94
2020/12/19 06:12:04;;;;;;;24.17;15.93;;;;;;;2.66;100.00;97656.84;4992523;28;20208;-93
2020/12/19 06:14:36;;;;;;;21.17;13.50;;;;;;;2.63;100.00;97659.56;4992509;28;20231;-93
2020/12/19 06:17:11;;;;;;;19.07;13.07;;;;;;;2.69;100.00;97666.22;4996734;28;20290;-91
2020/12/19 06:19:43;;;;;;;24.20;17.60;;;;;;;2.65;100.00;97665.53;4996674;28;20877;-92
2020/12/19 06:22:17;;;;;;;22.93;15.70;;;;;;;2.71;100.00;97667.84;4996584;28;20642;-92
2020/12/19 06:24:48;;;;;;;24.33;16.70;;;;;;;2.75;100.00;97671.97;4996853;28;20196;-93
2020/12/19 06:27:42;;;;;;;26.00;17.20;;;;;;;2.59;100.00;97673.63;4996224;28;20295;-92
2020/12/19 06:30:31;;;;;;;23.70;15.90;;;;;;;2.82;100.00;97677.69;4986888;28;20212;-92
2020/12/19 06:33:19;;;;;;;18.50;11.80;;;;;;;2.81;100.00;97678.63;4996909;28;20244;-96
2020/12/19 06:36:02;;;;;;;16.60;11.97;;;;;;;2.88;100.00;97681.75;5005926;28;20674;-95
2020/12/19 06:38:46;;;;;;;14.33;11.83;;;;;;;2.84;100.00;97673.25;4997486;28;20195;-96
2020/12/19 06:41:46;;;;;;;20.40;15.87;;;;;;;2.96;100.00;97680.44;4998592;28;20204;-95
2020/12/19 06:44:14;;;;;;;23.03;17.43;;;;;;;2.87;100.00;97683.50;4999456;28;20187;-96
2020/12/19 06:46:41;;;;;;;21.77;15.27;;;;;;;2.76;100.00;97680.59;4998112;28;20196;-96
2020/12/19 06:49:31;;;;;;;19.07;12.57;;;;;;;2.69;100.00;97679.22;4996739;28;20767;-96
2020/12/19 06:52:01;;;;;;;16.90;12.70;;;;;;;2.80;100.00;97687.31;4997348;28;20204;-96
2020/12/19 06:54:32;;;;;;;18.33;13.33;;;;;;;2.60;100.00;97689.16;5003474;28;20228;-96
2020/12/19 06:57:00;;;;;;;15.33;12.03;;;;;;;2.62;100.00;97689.06;4999955;28;20310;-96
2020/12/19 06:59:27;;;;;;;20.97;13.17;;;;;;;2.61;100.00;97693.41;5000872;28;20203;-96
2020/12/19 07:02:13;;;;;;;20.47;12.10;;;;;;;2.82;100.00;97688.09;5002700;28;20232;-96
2020/12/19 07:04:46;;;;;;;20.93;13.47;;;;;;;2.89;100.00;97686.88;4998777;28;20204;-96
2020/12/19 07:07:15;;;;;;;19.37;13.93;;;;;;;2.95;100.00;97696.94;5001418;28;20558;-96
2020/12/19 07:09:54;;;;;;;12.23;10.47;;;;;;;2.89;100.00;97686.03;4997338;28;20204;-96
2020/12/19 07:12:36;;;;;;;16.30;11.83;;;;;;;3.09;100.00;97689.31;4991191;28;20661;-96
2020/12/19 07:15:07;;;;;;;19.23;12.43;;;;;;;3.02;100.00;97687.09;5006312;28;20663;-96
2020/12/19 07:17:47;;;;;;;19.73;13.50;;;;;;;2.88;100.00;97687.78;4999430;28;20286;-96
2020/12/19 07:20:26;;;;;;;19.00;13.33;;;;;;;3.03;100.00;97689.59;4997306;28;20211;-96
2020/12/19 07:22:54;;;;;;;17.80;13.47;;;;;;;3.06;100.00;97684.25;4995927;28;20188;-96
2020/12/19 07:25:23;;;;;;;25.87;16.57;;;;;;;3.04;100.00;97686.09;4995863;28;20291;-96
2020/12/19 07:28:01;;;;;;;19.10;12.90;;;;;;;3.13;100.00;97689.16;4995365;28;20255;-96
2020/12/19 07:30:28;;;;;;;16.23;11.40;;;;;;;3.35;100.00;97684.53;4994956;28;20715;-94
2020/12/19 07:32:55;;;;;;;16.97;13.10;;;;;;;3.30;100.00;97689.13;4995406;28;20320;-90
2020/12/19 07:35:22;;;;;;;13.70;12.13;;;;;;;3.20;100.00;97687.91;4996063;28;20196;-92
2020/12/19 07:38:11;;;;;;;18.27;13.60;;;;;;;3.19;100.00;97683.66;4995425;28;20200;-94
2020/12/19 07:40:38;;;;;;;21.80;14.60;;;;;;;3.18;100.00;97681.94;4995897;28;20204;-95
2020/12/19 07:43:07;;;;;;;12.07;9.07;;;;;;;3.17;100.00;97677.69;4995646;28;20208;-94
2020/12/19 07:45:40;;;;;;;13.93;10.73;;;;;;;3.17;100.00;97677.69;4987889;28;20210;-94
2020/12/19 07:48:09;;;;;;;16.83;12.63;;;;;;;3.12;100.00;97685.72;4976460;28;20722;-94
2020/12/19 07:50:39;;;;;;;13.63;11.17;;;;;;;3.12;100.00;97682.25;4977072;28;20273;-94
2020/12/19 07:53:07;;;;;;;20.93;15.10;;;;;;;3.00;100.00;97683.72;4974384;28;20306;-95
2020/12/19 07:55:38;;;;;;;23.57;17.40;;;;;;;2.95;100.00;97680.53;4976552;28;20193;-95
2020/12/19 07:58:05;;;;;;;17.60;13.27;;;;;;;2.97;100.00;97678.69;4991403;28;20355;-95
2020/12/19 08:00:32;;;;;;;16.47;12.37;;;;;;;3.05;100.00;97682.59;4995804;28;20231;-94
2020/12/19 08:03:25;;;;;;;21.93;16.73;;;;;;;3.20;100.00;97682.72;4995406;28;20271;-93
2020/12/19 08:05:54;;;;;;;21.93;17.70;;;;;;;3.28;100.00;97677.97;4992866;28;20208;-94
2020/12/19 08:08:21;;;;;;;14.90;9.90;;;;;;;3.26;100.00;97680.66;4992479;28;20295;-95
2020/12/19 08:11:07;;;;;;;21.53;15.40;;;;;;;3.26;100.00;97692.81;4995551;28;20581;-95
2020/12/19 08:13:39;;;;;;;17.80;13.37;;;;;;;3.25;100.00;97685.91;4977464;28;20235;-94
2020/12/19 08:16:17;;;;;;;14.70;10.70;;;;;;;3.11;100.00;97681.41;4977896;28;20254;-94
2020/12/19 08:18:54;;;;;;;11.53;9.27;;;;;;;3.37;100.00;97681.88;4993322;28;20207;-95
2020/12/19 08:21:20;;;;;;;13.40;9.40;;;;;;;3.45;100.00;97679.69;4995656;28;20204;-94
2020/12/19 08:23:47;;;;;;;13.57;10.07;;;;;;;3.30;100.00;97681.34;4995083;28;20207;-95
2020/12/19 08:26:19;;;;;;;14.00;10.50;;;;;;;3.25;100.00;97678.13;4995155;28;20204;-95
2020/12/19 08:29:02;;;;;;;23.87;20.40;;;;;;;3.47;100.00;97676.09;4995346;28;20228;-94
2020/12/19 08:31:37;;;;;;;15.83;11.80;;;;;;;3.33;100.00;97681.19;4997757;28;20206;-95
2020/12/19 08:34:11;;;;;;;17.37;12.73;;;;;;;3.38;100.00;97679.16;4995859;28;20227;-95
2020/12/19 08:36:47;;;;;;;18.43;15.30;;;;;;;3.45;100.00;97680.53;4994332;28;20326;-96
2020/12/19 08:39:19;;;;;;;19.57;14.30;;;;;;;3.40;100.00;97676.50;4994143;28;20200;-95
2020/12/19 08:41:47;;;;;;;12.10;9.53;;;;;;;3.31;100.00;97665.66;4995217;28;20219;-93
2020/12/19 08:44:23;;;;;;;13.63;9.60;;;;;;;3.37;100.00;97667.09;4995437;28;20200;-94
2020/12/19 08:47:02;;;;;;;10.33;8.27;;;;;;;3.43;100.00;97663.31;4994202;28;20209;-95
2020/12/19 08:49:29;;;;;;;15.10;10.10;;;;;;;3.47;100.00;97668.31;4994727;28;20207;-91
2020/12/19 08:51:57;;;;;;;13.07;9.90;;;;;;;3.39;100.00;97667.84;4994812;28;20211;-91
2020/12/19 08:54:23;;;;;;;16.10;12.87;;;;;;;3.39;100.00;97665.25;4994339;28;20220;-93
2020/12/19 08:56:54;;;;;;;14.57;11.53;;;;;;;3.36;100.00;97665.44;4994327;28;20200;-93
2020/12/19 08:59:32;;;;;;;22.10;14.43;;;;;;;3.19;100.00;97658.50;4994225;28;20204;-93
2020/12/19 09:01:59;;;;;;;27.77;16.60;;;;;;;3.31;100.00;97657.03;4994524;28;20287;-93
2020/12/19 09:04:26;;;;;;;24.37;17.43;;;;;;;3.29;100.00;97654.50;4994113;28;20232;-93
2020/12/19 09:06:57;;;;;;;30.23;18.63;;;;;;;3.43;100.00;97647.72;4994117;28;20683;-90
2020/12/19 09:09:29;;;;;;;22.87;16.90;;;;;;;3.48;100.00;97646.56;4994038;28;20231;-94
2020/12/19 09:12:08;;;;;;;23.80;15.70;;;;;;;3.57;100.00;97642.66;4994272;28;20214;-91
2020/12/19 09:14:34;;;;;;;22.67;15.17;;;;;;;3.35;100.00;97648.13;4993529;28;20290;-92
2020/12/19 09:17:07;;;;;;;24.53;15.77;;;;;;;3.30;100.00;97647.56;4993952;28;20196;-92
2020/12/19 09:19:46;;;;;;;28.13;16.57;;;;;;;3.26;100.00;97641.69;4993761;28;20255;-93
2020/12/19 09:22:23;;;;;;;25.53;16.97;;;;;;;3.19;100.00;97642.09;4994127;28;20688;-94
2020/12/19 09:24:56;;;;;;;31.50;19.40;;;;;;;3.32;100.00;97649.13;4974806;28;20185;-94
2020/12/19 09:27:24;;;;;;;28.60;19.77;;;;;;;3.44;100.00;97632.06;4974256;28;20197;-93
2020/12/19 09:29:51;;;;;;;28.30;19.00;;;;;;;3.25;100.00;97639.13;4985781;28;20271;-92
2020/12/19 09:32:18;;;;;;;26.77;18.13;;;;;;;3.19;100.00;97636.88;4993480;28;20193;-93
2020/12/19 09:34:44;;;;;;;30.17;21.17;;;;;;;3.47;100.00;97629.31;4993243;28;20220;-92
2020/12/19 09:37:11;;;;;;;28.60;21.10;;;;;;;3.57;100.00;97629.66;4993636;28;20188;-93
2020/12/19 09:39:38;;;;;;;29.30;19.53;;;;;;;3.61;100.00;97625.16;4993114;28;20223;-92
2020/12/19 09:42:09;;;;;;;26.70;17.43;;;;;;;3.26;100.00;97627.84;4993666;28;20215;-95
2020/12/19 09:44:36;;;;;;;38.80;27.93;;;;;;;3.43;100.00;97629.53;4993678;28;20270;-92
2020/12/19 09:47:03;;;;;;;34.77;22.73;;;;;;;3.40;100.00;97621.94;4993591;28;20199;-93
2020/12/19 09:49:42;;;;;;;33.47;21.53;;;;;;;3.44;100.00;97621.69;4993052;28;20200;-93
2020/12/19 09:52:09;;;;;;;32.37;22.60;;;;;;;3.43;100.00;97625.22;4993613;28;20573;-92
2020/12/19 09:54:36;;;;;;;43.13;23.30;;;;;;;3.49;100.00;97618.81;4993196;28;20227;-92
2020/12/19 09:57:02;;;;;;;30.73;18.23;;;;;;;3.23;100.00;97622.81;4993559;28;20195;-91
2020/12/19 09:59:29;;;;;;;33.90;21.37;;;;;;;3.28;100.00;97624.22;4993941;28;20200;-91
2020/12/19 10:02:03;;;;;;;33.37;23.40;;;;;;;3.26;100.00;97617.47;4993349;28;20229;-94
2020/12/19 10:04:30;;;;;;;55.47;36.20;;;;;;;3.30;100.00;97614.59;4993630;28;20200;-93
2020/12/19 10:06:57;;;;;;;41.23;24.43;;;;;;;3.27;100.00;97619.13;4993098;28;20222;-91
2020/12/19 10:09:26;;;;;;;33.03;23.23;;;;;;;3.28;100.00;97615.59;5009271;28;20298;-92
2020/12/19 10:11:59;;;;;;;35.40;23.17;;;;;;;3.22;100.00;97613.31;4996220;28;20239;-90
2020/12/19 10:14:35;;;;;;;36.93;24.10;;;;;;;3.30;100.00;97603.38;4991505;28;20232;-91
2020/12/19 10:17:03;;;;;;;34.27;21.50;;;;;;;3.43;100.00;97606.16;4991583;28;20214;-93
2020/12/19 10:19:29;;;;;;;32.37;22.13;;;;;;;3.32;100.00;97604.13;4993315;28;20295;-92
2020/12/19 10:21:56;;;;;;;34.07;22.50;;;;;;;3.28;100.00;97613.84;4993234;28;20343;-92
2020/12/19 10:24:23;;;;;;;37.23;23.23;;;;;;;3.46;100.00;97598.19;4993169;28;20287;-92
2020/12/19 10:26:50;;;;;;;37.20;24.60;;;;;;;3.45;100.00;97589.56;4993148;28;20204;-93
2020/12/19 10:29:18;;;;;;;33.83;23.27;;;;;;;3.27;100.00;97588.78;4993530;28;20200;-89
2020/12/19 10:31:45;;;;;;;38.10;23.47;;;;;;;3.21;100.00;97596.91;4994380;28;20240;-94
2020/12/19 10:34:13;;;;;;;43.13;26.90;;;;;;;3.18;100.00;97591.03;4997201;28;20224;-93
2020/12/19 10:36:39;;;;;;;37.03;24.27;;;;;;;3.00;100.00;97582.44;4994741;28;20196;-91
2020/12/19 10:39:07;;;;;;;38.50;25.60;;;;;;;3.22;100.00;97580.41;4994611;28;20207;-93
2020/12/19 10:41:34;;;;;;;34.73;24.07;;;;;;;3.26;100.00;97581.09;4993223;28;20228;-93
2020/12/19 10:44:00;;;;;;;37.03;24.03;;;;;;;3.34;100.00;97584.09;4993804;28;20205;-91
2020/12/19 10:46:30;;;;;;;35.37;22.77;;;;;;;3.17;100.00;97585.00;4993221;28;20200;-92
2020/12/19 10:48:57;;;;;;;35.97;23.57;;;;;;;3.10;100.00;97588.81;4992983;28;20196;-93
2020/12/19 10:51:28;;;;;;;34.47;22.93;;;;;;;3.01;100.00;97584.97;4994730;28;20243;-92
2020/12/19 10:53:55;;;;;;;40.50;26.40;;;;;;;3.28;100.00;97576.63;4993091;28;20232;-91
2020/12/19 10:56:23;;;;;;;42.63;26.33;;;;;;;3.41;100.00;97572.44;4993012;28;20243;-96
2020/12/19 10:58:50;;;;;;;51.97;30.77;;;;;;;3.48;100.00;97576.41;4993022;28;20283;-95
2020/12/19 11:01:18;;;;;;;50.37;35.20;;;;;;;3.61;100.00;97568.78;4993367;28;20565;-96
2020/12/19 11:03:46;;;;;;;40.87;26.17;;;;;;;3.54;100.00;97573.47;4996424;28;20205;-95
2020/12/19 11:06:19;;;;;;;40.93;26.03;;;;;;;3.61;100.00;97568.78;4996356;28;20188;-91
2020/12/19 11:08:47;;;;;;;37.80;25.00;;;;;;;3.60;100.00;97571.44;4996553;28;20655;-90
2020/12/19 11:11:14;;;;;;;31.10;21.33;;;;;;;3.54;100.00;97570.03;4996366;28;20665;-87
2020/12/19 11:13:41;;;;;;;32.03;21.57;;;;;;;3.46;100.00;97567.84;4996035;28;20224;-87
2020/12/19 11:16:08;;;;;;;39.13;28.17;;;;;;;3.58;100.00;97571.53;4995898;28;20239;-88
2020/12/19 11:18:35;;;;;;;43.20;32.40;;;;;;;3.58;100.00;97561.97;4996149;28;20204;-89
2020/12/19 11:21:04;;;;;;;31.17;22.37;;;;;;;3.41;100.00;97559.47;4995222;28;20682;-86
2020/12/19 11:23:30;;;;;;;31.03;20.83;;;;;;;3.29;100.00;97555.78;4985308;28;20584;-89
2020/12/19 11:25:58;;;;;;;33.87;21.50;;;;;;;3.32;100.00;97559.94;4987868;28;20208;-88
2020/12/19 11:28:25;;;;;;;30.33;21.03;;;;;;;3.22;100.00;97559.63;4995905;28;20200;-89